Topi Weather



Topi's Current Weather

Temprature 10o haze

haze

Rain: 0 %

Min Temprature10o
Max Temprature10o
Humidity87
Wind Speed3.6 m/h
Sun Rise07:05:26
Sun Set17:00:48
Current Time: 12-Dec-2019 01:31:48
Lat/Lon: 34.07, 72.61




Topi's Geo Location



Topi's Weather Forecast

Time Overall Temp Min Temp Max Temp Humidity Wind Speed Rain
12-Dec-2019 (Thu)
02:00:00 overcast clouds 9.870 9.870 11.680 58 0.49 m/h 0 %
05:00:00 overcast clouds 9.360 9.360 10.720 60 0.69 m/h 0 %
08:00:00 overcast clouds 10.340 10.340 11.240 59 0.67 m/h 0 %
11:00:00 overcast clouds 14.870 14.870 15.320 43 1.24 m/h 0 %
14:00:00 overcast clouds 17.720 17.720 17.720 35 2.18 m/h 0 %
17:00:00 overcast clouds 15.140 15.140 15.140 42 1.13 m/h 0 %
20:00:00 overcast clouds 12.700 12.700 12.700 68 8.37 m/h 0 %
23:00:00 light rain 11.240 11.240 11.240 81 2.9 m/h 94 %
13-Dec-2019 (Fri)
02:00:00 light rain 10.460 10.460 10.460 89 0.46 m/h 263 %
05:00:00 moderate rain 10.370 10.370 10.370 90 1.87 m/h 313 %
08:00:00 light rain 10.720 10.720 10.720 86 1.82 m/h 75 %
11:00:00 light rain 12.050 12.050 12.050 76 1.51 m/h 6 %
14:00:00 light rain 12.150 12.150 12.150 75 0.23 m/h 13 %
17:00:00 overcast clouds 11.870 11.870 11.870 73 0.38 m/h 0 %
20:00:00 scattered clouds 10.480 10.480 10.480 78 0.2 m/h 0 %
23:00:00 scattered clouds 9.950 9.950 9.950 80 0.96 m/h 0 %
14-Dec-2019 (Sat)
02:00:00 clear sky 9.330 9.330 9.330 84 0.35 m/h 0 %
05:00:00 clear sky 8.960 8.960 8.960 85 1.2 m/h 0 %
08:00:00 clear sky 9.850 9.850 9.850 82 0.62 m/h 0 %
11:00:00 light rain 14.280 14.280 14.280 64 1.14 m/h 50 %
14:00:00 light rain 16.210 16.210 16.210 52 1.41 m/h 113 %
17:00:00 clear sky 13.830 13.830 13.830 60 0.44 m/h 0 %
20:00:00 clear sky 12.310 12.310 12.310 67 1.53 m/h 0 %
23:00:00 clear sky 10.870 10.870 10.870 71 1.54 m/h 0 %
15-Dec-2019 (Sun)
02:00:00 clear sky 10.030 10.030 10.030 71 1.15 m/h 0 %
05:00:00 clear sky 8.890 8.890 8.890 76 0.87 m/h 0 %
08:00:00 clear sky 9.310 9.310 9.310 70 0.8 m/h 0 %
11:00:00 clear sky 14.330 14.330 14.330 45 2.31 m/h 0 %
14:00:00 clear sky 17.170 17.170 17.170 34 2.44 m/h 0 %
17:00:00 clear sky 14.250 14.250 14.250 39 1.51 m/h 0 %
20:00:00 clear sky 12.290 12.290 12.290 42 0.9 m/h 0 %
23:00:00 clear sky 10.800 10.800 10.800 52 1.27 m/h 0 %
16-Dec-2019 (Mon)
02:00:00 clear sky 9.630 9.630 9.630 54 1.13 m/h 0 %
05:00:00 clear sky 8.500 8.500 8.500 50 0.78 m/h 0 %
08:00:00 clear sky 8.610 8.610 8.610 47 0.66 m/h 0 %
11:00:00 clear sky 13.930 13.930 13.930 29 2.01 m/h 0 %
14:00:00 scattered clouds 17.070 17.070 17.070 23 2.66 m/h 0 %
17:00:00 few clouds 14.090 14.090 14.090 28 1.8 m/h 0 %
20:00:00 clear sky 11.780 11.780 11.780 32 1.21 m/h 0 %
23:00:00 clear sky 10.180 10.180 10.180 36 1.25 m/h 0 %

Famous Cities (61)